createdAt,value
2022-10-23T00:00:22.266Z,100897.53
2022-10-23T00:02:24.126Z,100906.81
2022-10-23T00:04:26.049Z,100903.53
2022-10-23T00:06:29.224Z,100913.81
2022-10-23T00:08:31.031Z,100916.31
2022-10-23T00:10:32.933Z,100918.84
2022-10-23T00:12:34.790Z,100926.97
2022-10-23T00:14:36.536Z,100927.13
2022-10-23T00:16:38.411Z,100932.78
2022-10-23T00:18:41.082Z,100934.09
2022-10-23T00:20:42.790Z,100926.13
2022-10-23T00:22:44.681Z,100934.31
2022-10-23T00:24:46.635Z,100930.47
2022-10-23T00:26:50.538Z,100936.13
2022-10-23T00:28:54.123Z,100934.50
2022-10-23T00:30:55.934Z,100929.53
2022-10-23T00:32:57.619Z,100926.34
2022-10-23T00:34:59.546Z,100930.53
2022-10-23T00:37:01.375Z,100929.19
2022-10-23T00:39:04.008Z,100901.75
2022-10-23T00:41:07.339Z,100943.50
2022-10-23T00:43:18.812Z,100933.84
2022-10-23T00:45:25.356Z,100941.47
2022-10-23T00:47:27.122Z,100943.78
2022-10-23T00:49:28.922Z,100940.78
2022-10-23T00:51:36.201Z,100947.28
2022-10-23T00:53:38.547Z,100952.44
2022-10-23T00:55:43.173Z,100946.16
2022-10-23T00:57:47.335Z,100947.75
2022-10-23T00:59:49.242Z,100952.28
2022-10-23T01:01:51.269Z,100948.97
2022-10-23T01:03:53.376Z,100950.16
2022-10-23T01:06:13.199Z,100952.34
2022-10-23T01:08:27.251Z,100955.56
2022-10-23T01:10:37.866Z,100963.06
2022-10-23T01:13:06.118Z,100956.22
2022-10-23T01:15:16.512Z,100953.91
2022-10-23T01:17:44.566Z,100961.03
2022-10-23T01:20:07.192Z,100957.19
2022-10-23T01:22:17.965Z,100964.06
2022-10-23T01:24:51.119Z,100963.91
2022-10-23T01:27:10.215Z,100959.47
2022-10-23T01:29:41.293Z,100968.63
2022-10-23T01:31:45.671Z,100961.63
2022-10-23T01:33:51.620Z,100968.09
2022-10-23T01:36:02.740Z,100962.97
2022-10-23T01:38:13.272Z,100958.03
2022-10-23T01:40:28.047Z,100962.06
2022-10-23T01:42:35.885Z,100969.53
2022-10-23T01:44:49.366Z,100946.97
2022-10-23T01:46:53.926Z,100963.63
2022-10-23T01:48:58.772Z,100960.75
2022-10-23T01:51:04.969Z,100959.34
2022-10-23T01:53:06.919Z,100956.53
2022-10-23T01:55:10.939Z,100970.13
2022-10-23T01:57:17.716Z,100953.88
2022-10-23T01:59:27.414Z,100970.22
2022-10-23T02:01:31.833Z,100970.63
2022-10-23T02:03:37.075Z,100978.66
2022-10-23T02:05:39.397Z,100971.47
2022-10-23T02:07:41.654Z,100970.06
2022-10-23T02:09:43.652Z,100977.22
2022-10-23T02:11:59.480Z,100980.41
2022-10-23T02:14:20.776Z,100981.25
2022-10-23T02:16:41.918Z,100983.78
2022-10-23T02:19:08.936Z,100988.16
2022-10-23T02:21:16.590Z,100985.72
2022-10-23T02:23:56.853Z,100984.22
2022-10-23T02:26:16.142Z,100985.97
2022-10-23T02:28:23.483Z,100986.09
2022-10-23T02:30:25.244Z,100977.38
2022-10-23T02:32:29.097Z,100966.97
2022-10-23T02:34:30.781Z,100973.78
2022-10-23T02:36:32.883Z,100976.16
2022-10-23T02:38:41.993Z,100977.84
2022-10-23T02:40:45.792Z,100982.53
2022-10-23T02:42:58.134Z,100983.91
2022-10-23T02:45:24.344Z,100989.59
2022-10-23T02:47:59.735Z,100991.22
2022-10-23T02:50:01.480Z,100980.94
2022-10-23T02:52:23.498Z,100983.84
2022-10-23T02:54:58.446Z,100985.34
2022-10-23T02:57:14.002Z,100980.22
2022-10-23T02:59:27.121Z,100986.25
2022-10-23T03:01:38.674Z,100985.56
2022-10-23T03:03:54.069Z,100981.91
2022-10-23T03:05:56.339Z,100987.56
2022-10-23T03:07:58.439Z,100985.59
2022-10-23T03:10:00.346Z,100994.56
2022-10-23T03:12:02.215Z,100996.97
2022-10-23T03:14:03.915Z,100994.50
2022-10-23T03:16:05.781Z,100997.59
2022-10-23T03:18:07.789Z,101005.63
2022-10-23T03:20:10.240Z,100995.53
2022-10-23T03:22:11.982Z,101002.00
2022-10-23T03:24:13.895Z,101005.06
2022-10-23T03:26:16.159Z,101003.34
2022-10-23T03:28:18.114Z,101002.13
2022-10-23T03:30:20.317Z,101003.19
2022-10-23T03:32:22.059Z,101009.28
2022-10-23T03:34:23.986Z,101012.84
2022-10-23T03:36:26.154Z,101018.31
2022-10-23T03:38:27.879Z,101022.22
2022-10-23T03:40:29.830Z,101015.09
2022-10-23T03:42:31.680Z,101029.69
2022-10-23T03:44:33.528Z,101024.88
2022-10-23T03:46:35.422Z,101028.91
2022-10-23T03:48:37.408Z,101030.94
2022-10-23T03:50:39.173Z,101028.69
2022-10-23T03:52:41.337Z,101034.38
2022-10-23T03:54:43.242Z,101029.72
2022-10-23T03:56:44.974Z,101037.06
2022-10-23T03:58:46.899Z,101024.09
2022-10-23T04:00:48.731Z,101023.13
2022-10-23T04:02:50.521Z,101029.44
2022-10-23T04:04:52.426Z,101036.09
2022-10-23T04:06:54.209Z,101041.47
2022-10-23T04:08:56.068Z,101031.78
2022-10-23T04:10:57.848Z,101032.00
2022-10-23T04:12:59.735Z,101032.34
2022-10-23T04:15:01.460Z,101027.84
2022-10-23T04:17:03.446Z,101046.06
2022-10-23T04:19:05.214Z,101043.69
2022-10-23T04:21:06.911Z,101038.06
2022-10-23T04:23:08.697Z,101031.22
2022-10-23T04:25:10.657Z,101035.16
2022-10-23T04:27:13.243Z,101042.34
2022-10-23T04:29:15.213Z,101041.31
2022-10-23T04:31:17.049Z,101045.38
2022-10-23T04:33:19.159Z,101045.34
2022-10-23T04:35:21.081Z,101038.72
2022-10-23T04:37:23.000Z,101036.00
2022-10-23T04:39:24.698Z,101032.63
2022-10-23T04:41:26.673Z,101038.81
2022-10-23T04:43:28.469Z,101027.06
2022-10-23T04:45:30.179Z,101042.44
2022-10-23T04:47:31.954Z,101027.06
2022-10-23T04:49:33.764Z,101035.25
2022-10-23T04:51:35.464Z,101035.75
2022-10-23T04:53:37.458Z,101029.66
2022-10-23T04:55:39.376Z,101028.81
2022-10-23T04:57:41.520Z,101031.00
2022-10-23T04:59:43.392Z,101027.00
2022-10-23T05:01:45.348Z,101032.81
2022-10-23T05:03:47.045Z,101042.50
2022-10-23T05:05:48.811Z,101026.50
2022-10-23T05:07:50.617Z,101042.00
2022-10-23T05:09:52.314Z,101039.53
2022-10-23T05:11:54.745Z,101049.59
2022-10-23T05:13:56.505Z,101050.97
2022-10-23T05:15:58.871Z,101048.25
2022-10-23T05:18:05.929Z,101058.00
2022-10-23T05:20:12.230Z,101052.44
2022-10-23T05:22:14.637Z,101050.66
2022-10-23T05:24:16.555Z,101047.25
2022-10-23T05:26:18.404Z,101057.22
2022-10-23T05:28:24.170Z,101057.06
2022-10-23T05:30:26.053Z,101052.44
2022-10-23T05:32:31.422Z,101052.44
2022-10-23T05:34:36.740Z,101046.06
2022-10-23T05:36:38.710Z,101057.69
2022-10-23T05:38:41.683Z,101051.28
2022-10-23T05:40:43.446Z,101046.09
2022-10-23T05:42:45.485Z,101051.19
2022-10-23T05:44:47.414Z,101051.75
2022-10-23T05:46:49.094Z,101044.63
2022-10-23T05:48:51.547Z,101046.28
2022-10-23T05:50:53.603Z,101042.94
2022-10-23T05:52:55.331Z,101039.84
2022-10-23T05:54:57.149Z,101045.97
2022-10-23T05:56:58.909Z,101047.69
2022-10-23T05:59:00.688Z,101044.97
2022-10-23T06:01:10.170Z,101057.56
2022-10-23T06:03:11.996Z,101050.41
2022-10-23T06:05:13.802Z,101056.41
2022-10-23T06:07:15.758Z,101059.78
2022-10-23T06:09:17.536Z,101049.34
2022-10-23T06:11:19.434Z,101050.84
2022-10-23T06:13:21.293Z,101057.38
2022-10-23T06:15:23.167Z,101051.88
2022-10-23T06:17:24.891Z,101056.69
2022-10-23T06:19:26.890Z,101051.19
2022-10-23T06:21:28.644Z,101050.00
2022-10-23T06:23:32.430Z,101046.84
2022-10-23T06:25:34.295Z,101052.13
2022-10-23T06:27:36.071Z,101055.88
2022-10-23T06:29:37.812Z,101062.34
2022-10-23T06:31:39.711Z,101064.59
2022-10-23T06:33:41.943Z,101057.16
2022-10-23T06:35:43.745Z,101052.81
2022-10-23T06:37:45.674Z,101050.56
2022-10-23T06:39:47.449Z,101052.31
2022-10-23T06:41:49.167Z,101042.72
2022-10-23T06:43:51.746Z,101041.09
2022-10-23T06:45:53.914Z,101036.59
2022-10-23T06:47:55.845Z,101042.69
2022-10-23T06:49:57.604Z,101039.41
2022-10-23T06:51:59.404Z,101039.75
2022-10-23T06:54:01.155Z,101045.13
2022-10-23T06:56:05.021Z,101041.66
2022-10-23T06:58:09.795Z,101048.00
2022-10-23T07:00:12.525Z,101052.28
2022-10-23T07:02:14.386Z,101053.59
2022-10-23T07:04:16.251Z,101060.63
2022-10-23T07:06:17.997Z,101061.78
2022-10-23T07:08:19.882Z,101065.00
2022-10-23T07:10:22.391Z,101058.28
2022-10-23T07:12:24.222Z,101058.28
2022-10-23T07:14:26.136Z,101058.09
2022-10-23T07:16:28.072Z,101059.13
2022-10-23T07:18:29.852Z,101053.59
2022-10-23T07:20:31.741Z,101061.78
2022-10-23T07:22:33.672Z,101061.97
2022-10-23T07:24:35.408Z,101059.47
2022-10-23T07:26:37.371Z,101066.63
2022-10-23T07:28:39.298Z,101071.44
2022-10-23T07:30:40.999Z,101059.09
2022-10-23T07:32:42.896Z,101067.94
2022-10-23T07:34:44.943Z,101065.25
2022-10-23T07:36:46.633Z,101063.22
2022-10-23T07:38:48.437Z,101062.75
2022-10-23T07:40:50.693Z,101063.41
2022-10-23T07:42:52.374Z,101068.09
2022-10-23T07:44:54.203Z,101053.41
2022-10-23T07:46:56.031Z,101053.28
2022-10-23T07:48:57.723Z,101019.41
2022-10-23T07:51:05.992Z,101061.28
2022-10-23T07:53:08.007Z,101063.75
2022-10-23T07:55:09.864Z,101064.59
2022-10-23T07:57:11.670Z,101066.91
2022-10-23T07:59:13.656Z,101051.34
2022-10-23T08:01:19.208Z,101069.41
2022-10-23T08:03:21.333Z,101063.22
2022-10-23T08:05:23.245Z,101060.44
2022-10-23T08:07:24.921Z,101056.81
2022-10-23T08:09:26.901Z,101056.97
2022-10-23T08:11:28.878Z,101052.44
2022-10-23T08:13:30.586Z,101062.41
2022-10-23T08:15:32.325Z,101060.09
2022-10-23T08:17:34.124Z,101070.25
2022-10-23T08:19:36.511Z,101070.94
2022-10-23T08:21:38.678Z,101063.59
2022-10-23T08:23:40.521Z,101066.19
2022-10-23T08:25:42.299Z,101061.69
2022-10-23T08:27:44.269Z,101072.72
2022-10-23T08:29:46.366Z,101056.69
2022-10-23T08:31:48.073Z,101065.03
2022-10-23T08:35:56.649Z,101075.31
2022-10-23T08:37:58.326Z,101072.69
2022-10-23T08:40:02.361Z,101071.19
2022-10-23T08:42:04.484Z,101081.00
2022-10-23T08:44:13.472Z,101086.34
2022-10-23T08:46:19.822Z,101089.13
2022-10-23T08:48:25.441Z,101079.97
2022-10-23T08:50:32.356Z,101081.16
2022-10-23T08:52:44.375Z,101093.66
2022-10-23T08:55:14.421Z,101088.84
2022-10-23T08:57:18.050Z,101086.75
2022-10-23T08:59:27.133Z,101089.41
2022-10-23T09:01:40.843Z,101090.75
2022-10-23T09:03:43.405Z,101084.44
2022-10-23T09:06:00.097Z,101085.09
2022-10-23T09:08:21.699Z,101086.59
2022-10-23T09:10:34.492Z,101087.09
2022-10-23T09:12:36.903Z,101089.59
2022-10-23T09:15:29.926Z,101103.47
2022-10-23T09:17:42.372Z,101104.31
2022-10-23T09:19:46.335Z,101097.91
2022-10-23T09:21:48.728Z,101107.59
2022-10-23T09:23:50.440Z,101108.69
2022-10-23T09:25:53.728Z,101109.81
2022-10-23T09:28:00.174Z,101115.75
2022-10-23T09:30:07.101Z,101115.25
2022-10-23T09:32:08.901Z,101122.50
2022-10-23T09:34:20.810Z,101115.59
2022-10-23T09:36:23.910Z,101118.50
2022-10-23T09:38:34.874Z,101120.72
2022-10-23T09:40:58.234Z,101121.91
2022-10-23T09:43:13.908Z,101119.34
2022-10-23T09:45:42.069Z,101120.00
2022-10-23T09:47:44.170Z,101115.13
2022-10-23T09:49:51.534Z,101122.16
2022-10-23T09:52:19.732Z,101113.41
2022-10-23T09:54:23.374Z,101115.19
2022-10-23T09:56:25.039Z,101116.19
2022-10-23T09:59:03.305Z,101112.78
2022-10-23T10:01:05.637Z,101115.63
2022-10-23T10:03:23.204Z,101119.63
2022-10-23T10:05:29.737Z,101110.63
2022-10-23T10:07:33.529Z,101109.09
2022-10-23T10:09:37.791Z,101124.59
2022-10-23T10:11:57.360Z,101119.81
2022-10-23T10:14:19.397Z,101122.75
2022-10-23T10:16:33.405Z,101113.19
2022-10-23T10:18:37.806Z,101117.66
2022-10-23T10:20:48.189Z,101111.84
2022-10-23T10:23:21.947Z,101106.81
2022-10-23T10:25:52.396Z,101106.22
2022-10-23T10:28:13.494Z,101111.19
2022-10-23T10:30:20.767Z,101121.06
2022-10-23T10:32:42.049Z,101115.28
2022-10-23T10:34:48.863Z,101117.13
2022-10-23T10:36:57.786Z,101108.72
2022-10-23T10:39:10.971Z,101113.25
2022-10-23T10:41:42.841Z,101101.31
2022-10-23T10:44:32.687Z,101100.31
2022-10-23T10:47:03.396Z,101100.47
2022-10-23T10:49:18.852Z,101086.84
2022-10-23T10:51:26.506Z,101099.44
2022-10-23T10:53:51.591Z,101107.81
2022-10-23T10:55:59.596Z,101088.91
2022-10-23T10:58:16.872Z,101101.78
2022-10-23T11:00:21.446Z,101107.31
2022-10-23T11:02:35.656Z,101103.81
2022-10-23T11:05:10.091Z,101072.66
2022-10-23T11:07:15.855Z,101098.31
2022-10-23T11:09:21.482Z,101104.78
2022-10-23T11:11:27.214Z,101102.38
2022-10-23T11:13:40.607Z,101102.03
2022-10-23T11:15:44.899Z,101107.41
2022-10-23T11:17:55.116Z,101108.06
2022-10-23T11:20:16.045Z,101100.53
2022-10-23T11:22:37.937Z,101105.88
2022-10-23T11:25:04.069Z,101114.72
2022-10-23T11:27:20.856Z,101102.03
2022-10-23T11:29:28.382Z,101112.50
2022-10-23T11:31:44.514Z,101108.19
2022-10-23T11:34:10.901Z,101111.22
2022-10-23T11:36:20.802Z,101104.09
2022-10-23T11:38:28.152Z,101102.56
2022-10-23T11:40:30.100Z,101101.28
2022-10-23T11:42:47.473Z,101101.59
2022-10-23T11:44:50.372Z,101106.44
2022-10-23T11:47:31.301Z,101096.09
2022-10-23T11:49:34.568Z,101098.41
2022-10-23T11:51:40.970Z,101075.38
2022-10-23T11:53:42.673Z,101089.75
2022-10-23T11:56:11.924Z,101090.44
2022-10-23T11:58:23.718Z,101089.19
2022-10-23T12:00:39.227Z,101091.09
2022-10-23T12:02:43.339Z,101091.31
2022-10-23T12:04:52.334Z,101090.16
2022-10-23T12:07:00.805Z,101085.47
2022-10-23T12:09:22.331Z,101085.34
2022-10-23T12:11:41.119Z,101085.50
2022-10-23T12:13:46.714Z,101085.78
2022-10-23T12:15:56.061Z,101093.56
2022-10-23T12:18:16.819Z,101094.06
2022-10-23T12:20:25.771Z,101086.19
2022-10-23T12:22:42.551Z,101084.38
2022-10-23T12:25:33.985Z,101090.56
2022-10-23T12:27:44.615Z,101087.56
2022-10-23T12:30:14.485Z,101092.91
2022-10-23T12:33:01.409Z,101081.44
2022-10-23T12:35:44.665Z,101085.72
2022-10-23T12:38:12.535Z,101081.59
2022-10-23T12:40:14.284Z,101075.56
2022-10-23T12:42:23.648Z,101077.09
2022-10-23T12:44:26.486Z,101075.72
2022-10-23T12:46:32.658Z,101068.53
2022-10-23T12:48:34.537Z,101077.06
2022-10-23T12:50:36.943Z,101080.56
2022-10-23T12:52:38.663Z,101082.75
2022-10-23T12:54:40.481Z,101069.88
2022-10-23T12:56:42.430Z,101082.00
2022-10-23T12:58:58.854Z,101088.16
2022-10-23T13:01:03.575Z,101090.97
2022-10-23T13:03:05.400Z,101094.97
2022-10-23T13:05:09.205Z,101085.00
2022-10-23T13:07:11.462Z,101089.47
2022-10-23T13:09:27.643Z,101087.94
2022-10-23T13:11:31.058Z,101087.09
2022-10-23T13:13:32.922Z,101094.09
2022-10-23T13:15:43.866Z,101095.63
2022-10-23T13:18:06.636Z,101096.25
2022-10-23T13:20:32.409Z,101093.44
2022-10-23T13:22:36.559Z,101098.63
2022-10-23T13:24:41.311Z,101100.13
2022-10-23T13:26:43.061Z,101098.47
2022-10-23T13:28:45.859Z,101097.38
2022-10-23T13:31:02.688Z,101092.81
2022-10-23T13:33:26.168Z,101091.00
2022-10-23T13:35:27.867Z,101098.34
2022-10-23T13:37:30.281Z,101096.53
2022-10-23T13:39:34.048Z,101086.94
2022-10-23T13:41:37.591Z,101083.72
2022-10-23T13:43:40.336Z,101086.06
2022-10-23T13:45:42.081Z,101088.75
2022-10-23T13:47:44.282Z,101089.78
2022-10-23T13:49:46.304Z,101096.88
2022-10-23T13:51:51.716Z,101097.19
2022-10-23T13:53:54.701Z,101093.47
2022-10-23T13:55:58.728Z,101100.66
2022-10-23T13:58:00.763Z,101109.22
2022-10-23T14:00:02.744Z,101102.94
2022-10-23T14:02:18.539Z,101093.00
2022-10-23T14:04:20.467Z,101091.00
2022-10-23T14:06:22.242Z,101089.19
2022-10-23T14:08:23.979Z,101090.53
2022-10-23T14:10:27.697Z,101088.84
2022-10-23T14:12:29.724Z,101075.81
2022-10-23T14:14:31.447Z,101082.69
2022-10-23T14:16:33.369Z,101070.56
2022-10-23T14:18:35.287Z,101074.41
2022-10-23T14:20:38.523Z,101070.22
2022-10-23T14:22:40.279Z,101066.69
2022-10-23T14:24:42.248Z,101068.59
2022-10-23T14:26:44.041Z,101067.94
2022-10-23T14:28:45.955Z,101059.94
2022-10-23T14:30:47.835Z,101061.84
2022-10-23T14:32:49.558Z,101058.84
2022-10-23T14:34:53.576Z,101059.75
2022-10-23T14:37:08.135Z,101051.78
2022-10-23T14:39:10.765Z,101054.75
2022-10-23T14:41:14.221Z,101051.75
2022-10-23T14:43:16.249Z,101057.03
2022-10-23T14:45:17.976Z,101053.28
2022-10-23T14:47:19.978Z,101038.91
2022-10-23T14:49:32.831Z,101045.44
2022-10-23T14:51:39.711Z,101043.97
2022-10-23T14:53:44.608Z,101052.00
2022-10-23T14:55:46.740Z,101048.31
2022-10-23T14:57:48.850Z,101060.47
2022-10-23T14:59:50.677Z,101058.75
2022-10-23T15:03:59.086Z,101050.09
2022-10-23T15:06:00.774Z,101047.03
2022-10-23T15:08:02.510Z,101048.84
2022-10-23T15:10:05.414Z,101050.53
2022-10-23T15:12:07.610Z,101039.97
2022-10-23T15:14:09.621Z,101043.78
2022-10-23T15:16:12.119Z,101049.81
2022-10-23T15:18:13.834Z,101051.13
2022-10-23T15:20:15.739Z,101051.41
2022-10-23T15:22:17.748Z,101057.44
2022-10-23T15:24:19.923Z,101067.03
2022-10-23T15:26:21.947Z,101057.00
2022-10-23T15:28:23.667Z,101061.78
2022-10-23T15:30:25.757Z,101064.31
2022-10-23T15:32:27.631Z,101061.97
2022-10-23T15:34:30.144Z,101060.47
2022-10-23T15:36:31.906Z,101060.75
2022-10-23T15:38:33.621Z,101064.56
2022-10-23T15:40:35.301Z,101056.19
2022-10-23T15:42:37.036Z,101050.66
2022-10-23T15:44:40.297Z,101051.09
2022-10-23T15:46:42.496Z,101051.84
2022-10-23T15:48:44.193Z,101049.66
2022-10-23T15:50:45.879Z,101047.63
2022-10-23T15:52:47.642Z,101047.38
2022-10-23T15:54:49.336Z,101048.25
2022-10-23T15:56:53.571Z,101047.75
2022-10-23T15:58:55.429Z,101036.88
2022-10-23T16:00:57.381Z,101048.25
2022-10-23T16:02:59.458Z,101046.03
2022-10-23T16:05:01.216Z,101037.59
2022-10-23T16:07:02.936Z,101045.69
2022-10-23T16:09:05.649Z,101050.31
2022-10-23T16:11:15.486Z,101054.94
2022-10-23T16:13:17.255Z,101054.41
2022-10-23T16:15:19.431Z,101056.47
2022-10-23T16:17:21.167Z,101051.31
2022-10-23T16:19:22.886Z,101039.34
2022-10-23T16:21:27.691Z,101045.38
2022-10-23T16:23:29.471Z,101059.78
2022-10-23T16:27:37.859Z,101066.25
2022-10-23T16:29:39.586Z,101066.41
2022-10-23T16:31:41.339Z,101062.94
2022-10-23T16:33:43.273Z,101061.00
2022-10-23T16:35:45.110Z,101075.00
2022-10-23T16:37:47.038Z,101077.50
2022-10-23T16:39:49.023Z,101068.69
2022-10-23T16:41:50.799Z,101068.56
2022-10-23T16:43:52.507Z,101069.13
2022-10-23T16:46:08.436Z,101073.31
2022-10-23T16:48:10.157Z,101070.78
2022-10-23T16:50:11.856Z,101077.25
2022-10-23T16:52:13.547Z,101074.16
2022-10-23T16:54:15.280Z,101068.00
2022-10-23T16:56:21.325Z,101068.31
2022-10-23T16:58:24.225Z,101063.28
2022-10-23T17:00:26.261Z,101072.50
2022-10-23T17:02:28.071Z,101069.84
2022-10-23T17:04:30.214Z,101062.44
2022-10-23T17:06:33.029Z,101064.84
2022-10-23T17:08:34.975Z,101075.31
2022-10-23T17:10:37.042Z,101068.75
2022-10-23T17:12:38.764Z,101076.56
2022-10-23T17:14:40.509Z,101073.63
2022-10-23T17:16:45.570Z,101075.59
2022-10-23T17:18:47.407Z,101076.13
2022-10-23T17:20:57.034Z,101079.09
2022-10-23T17:22:58.883Z,101083.69
2022-10-23T17:25:00.609Z,101072.25
2022-10-23T17:27:02.308Z,101072.94
2022-10-23T17:29:06.472Z,101070.97
2022-10-23T17:31:22.259Z,101073.78
2022-10-23T17:33:24.010Z,101066.44
2022-10-23T17:35:25.957Z,101075.63
2022-10-23T17:37:27.666Z,101071.72
2022-10-23T17:39:30.135Z,101072.69
2022-10-23T17:41:32.179Z,101069.84
2022-10-23T17:43:34.562Z,101071.50
2022-10-23T17:45:36.320Z,101070.34
2022-10-23T17:47:38.340Z,101070.09
2022-10-23T17:49:42.784Z,101074.44
2022-10-23T17:51:51.870Z,101066.59
2022-10-23T17:53:55.735Z,101082.78
2022-10-23T17:55:57.857Z,101087.75
2022-10-23T17:57:59.578Z,101083.75
2022-10-23T18:00:01.439Z,101085.94
2022-10-23T18:02:03.282Z,101083.56
2022-10-23T18:04:07.226Z,101080.09
2022-10-23T18:06:15.688Z,101082.03
2022-10-23T18:08:17.418Z,101072.56
2022-10-23T18:10:19.628Z,101072.44
2022-10-23T18:12:22.052Z,101073.00
2022-10-23T18:14:26.112Z,101073.44
2022-10-23T18:16:30.304Z,101071.94
2022-10-23T18:18:32.656Z,101050.56
2022-10-23T18:20:39.658Z,101057.09
2022-10-23T18:22:41.548Z,101060.84
2022-10-23T18:24:43.678Z,101066.44
2022-10-23T18:26:45.746Z,101067.97
2022-10-23T18:28:49.100Z,101062.81
2022-10-23T18:30:53.366Z,101070.50
2022-10-23T18:32:57.813Z,101067.09
2022-10-23T18:34:59.673Z,101070.16
2022-10-23T18:37:01.835Z,101069.16
2022-10-23T18:39:05.333Z,101071.56
2022-10-23T18:41:07.173Z,101070.47
2022-10-23T18:43:14.827Z,101068.31
2022-10-23T18:45:17.102Z,101066.94
2022-10-23T18:47:18.841Z,101069.53
2022-10-23T18:49:20.767Z,101062.94
2022-10-23T18:51:34.102Z,101053.63
2022-10-23T18:53:35.827Z,101057.44
2022-10-23T18:55:44.374Z,101058.31
2022-10-23T18:57:46.471Z,101066.44
2022-10-23T18:59:48.440Z,101061.63
2022-10-23T19:01:50.367Z,101070.50
2022-10-23T19:03:52.874Z,101059.78
2022-10-23T19:05:54.643Z,101056.34
2022-10-23T19:07:56.505Z,101056.75
2022-10-23T19:09:58.722Z,101055.78
2022-10-23T19:12:00.531Z,101050.50
2022-10-23T19:14:02.461Z,101051.16
2022-10-23T19:16:06.946Z,101057.31
2022-10-23T19:18:09.466Z,101052.72
2022-10-23T19:20:14.664Z,101051.22
2022-10-23T19:22:18.064Z,101053.31
2022-10-23T19:24:25.602Z,101054.75
2022-10-23T19:26:29.736Z,101051.81
2022-10-23T19:28:35.371Z,101042.47
2022-10-23T19:30:40.121Z,101040.19
2022-10-23T19:32:42.736Z,101047.63
2022-10-23T19:34:44.831Z,101039.66
2022-10-23T19:36:47.943Z,101028.75
2022-10-23T19:38:49.752Z,101048.44
2022-10-23T19:40:51.495Z,101035.56
2022-10-23T19:42:53.177Z,101026.94
2022-10-23T19:44:55.062Z,101025.66
2022-10-23T19:46:56.752Z,101028.72
2022-10-23T19:48:58.470Z,101027.88
2022-10-23T19:51:00.462Z,101035.41
2022-10-23T19:53:02.232Z,101028.97
2022-10-23T19:55:05.138Z,101028.25
2022-10-23T19:57:07.254Z,101019.47
2022-10-23T19:59:10.812Z,101012.94
2022-10-23T20:01:16.565Z,101013.78
2022-10-23T20:03:18.389Z,101006.28
2022-10-23T20:05:20.856Z,101010.72
2022-10-23T20:07:22.587Z,100998.66
2022-10-23T20:09:24.586Z,100993.34
2022-10-23T20:11:30.102Z,101000.31
2022-10-23T20:13:32.065Z,101006.97
2022-10-23T20:15:36.901Z,101003.78
2022-10-23T20:17:38.623Z,101005.59
2022-10-23T20:19:40.334Z,101000.00
2022-10-23T20:21:43.978Z,100997.81
2022-10-23T20:23:45.896Z,101003.13
2022-10-23T20:25:47.655Z,101005.31
2022-10-23T20:27:49.334Z,101000.25
2022-10-23T20:29:51.162Z,100991.72
2022-10-23T20:31:56.923Z,100993.28
2022-10-23T20:33:58.698Z,100992.31
2022-10-23T20:36:00.416Z,100998.88
2022-10-23T20:38:02.140Z,100996.63
2022-10-23T20:40:04.205Z,100996.19
2022-10-23T20:42:06.295Z,100991.72
2022-10-23T20:44:11.031Z,100987.16
2022-10-23T20:46:13.095Z,100988.69
2022-10-23T20:48:14.820Z,100987.56
2022-10-23T20:50:16.580Z,100994.28
2022-10-23T20:52:18.402Z,100992.34
2022-10-23T20:54:20.084Z,100987.22
2022-10-23T20:56:23.392Z,100975.47
2022-10-23T20:58:25.343Z,100986.88
2022-10-23T21:00:27.018Z,100987.19
2022-10-23T21:02:29.042Z,100989.53
2022-10-23T21:04:31.080Z,100987.31
2022-10-23T21:06:45.816Z,100988.03
2022-10-23T21:09:00.104Z,100982.44
2022-10-23T21:11:01.825Z,100981.59
2022-10-23T21:13:03.523Z,100992.59
2022-10-23T21:15:05.772Z,100990.81
2022-10-23T21:17:07.672Z,100988.41
2022-10-23T21:19:12.729Z,100979.78
2022-10-23T21:21:20.231Z,100975.78
2022-10-23T21:23:22.296Z,100974.66
2022-10-23T21:25:24.012Z,100983.31
2022-10-23T21:27:25.740Z,100981.34
2022-10-23T21:29:27.733Z,100987.22
2022-10-23T21:31:29.525Z,100982.59
2022-10-23T21:33:31.868Z,100983.41
2022-10-23T21:35:33.782Z,100991.09
2022-10-23T21:37:35.520Z,100981.38
2022-10-23T21:39:37.247Z,100989.38
2022-10-23T21:41:39.350Z,100988.94
2022-10-23T21:43:41.554Z,100970.22
2022-10-23T21:45:43.268Z,100978.19
2022-10-23T21:47:45.463Z,100962.38
2022-10-23T21:49:47.287Z,100972.31
2022-10-23T21:51:49.011Z,100968.41
2022-10-23T21:53:52.955Z,100973.72
2022-10-23T21:55:56.302Z,100965.91
2022-10-23T21:57:57.995Z,100967.47
2022-10-23T22:00:00.241Z,100962.88
2022-10-23T22:02:02.007Z,100962.03
2022-10-23T22:04:03.783Z,100956.59
2022-10-23T22:06:05.967Z,100953.50
2022-10-23T22:08:07.645Z,100954.75
2022-10-23T22:10:09.391Z,100946.94
2022-10-23T22:12:12.057Z,100947.06
2022-10-23T22:14:13.887Z,100949.16
2022-10-23T22:16:17.305Z,100941.88
2022-10-23T22:18:19.137Z,100947.22
2022-10-23T22:20:21.021Z,100941.34
2022-10-23T22:22:22.773Z,100949.19
2022-10-23T22:24:25.144Z,100950.44
2022-10-23T22:26:38.791Z,100953.25
2022-10-23T22:28:40.565Z,100953.94
2022-10-23T22:30:42.406Z,100953.59
2022-10-23T22:32:48.364Z,100942.25
2022-10-23T22:34:52.981Z,100949.91
2022-10-23T22:36:56.116Z,100932.34
2022-10-23T22:38:57.917Z,100938.78
2022-10-23T22:41:04.217Z,100939.22
2022-10-23T22:43:06.637Z,100940.22
2022-10-23T22:45:09.131Z,100934.47
2022-10-23T22:47:10.906Z,100932.41
2022-10-23T22:49:13.175Z,100936.28
2022-10-23T22:51:17.511Z,100931.28
2022-10-23T22:53:19.210Z,100933.09
2022-10-23T22:55:21.165Z,100926.00
2022-10-23T22:57:22.979Z,100932.41
2022-10-23T22:59:24.733Z,100936.16
2022-10-23T23:01:36.606Z,100929.19
2022-10-23T23:03:38.869Z,100936.28
2022-10-23T23:05:47.971Z,100937.84
2022-10-23T23:07:50.025Z,100937.72
2022-10-23T23:09:51.745Z,100924.91
2022-10-23T23:11:53.437Z,100923.38
2022-10-23T23:13:55.256Z,100919.34
2022-10-23T23:15:57.560Z,100911.09
2022-10-23T23:17:59.438Z,100915.16
2022-10-23T23:20:01.404Z,100922.41
2022-10-23T23:22:04.165Z,100925.09
2022-10-23T23:24:05.924Z,100926.78
2022-10-23T23:26:08.766Z,100928.16
2022-10-23T23:28:18.654Z,100936.81
2022-10-23T23:30:20.880Z,100934.44
2022-10-23T23:32:22.855Z,100934.44
2022-10-23T23:34:24.614Z,100931.53
2022-10-23T23:36:27.811Z,100929.16
2022-10-23T23:38:29.889Z,100933.03
2022-10-23T23:40:31.653Z,100928.75
2022-10-23T23:42:33.383Z,100925.78
2022-10-23T23:44:41.946Z,100927.59
2022-10-23T23:46:52.647Z,100940.03
2022-10-23T23:48:54.334Z,100918.81
2022-10-23T23:50:56.139Z,100938.78
2022-10-23T23:52:57.847Z,100923.97
2022-10-23T23:55:00.390Z,100931.94
2022-10-23T23:57:02.422Z,100936.44
2022-10-23T23:59:04.135Z,100939.09
